createdAt,value
2022-11-25T00:01:55.672Z,90.70
2022-11-25T00:04:24.214Z,85.40
2022-11-25T00:06:52.701Z,85.90
2022-11-25T00:09:21.215Z,89.00
2022-11-25T00:11:49.808Z,88.60
2022-11-25T00:14:18.352Z,96.50
2022-11-25T00:16:48.777Z,81.80
2022-11-25T00:19:17.967Z,92.10
2022-11-25T00:21:46.642Z,84.20
2022-11-25T00:24:17.373Z,87.20
2022-11-25T00:26:46.016Z,88.70
2022-11-25T00:29:14.653Z,93.30
2022-11-25T00:31:43.789Z,84.30
2022-11-25T00:34:14.744Z,79.10
2022-11-25T00:36:43.672Z,86.80
2022-11-25T00:39:16.062Z,84.80
2022-11-25T00:42:09.141Z,84.80
2022-11-25T00:44:39.702Z,88.80
2022-11-25T00:47:16.051Z,93.00
2022-11-25T00:49:48.014Z,86.70
2022-11-25T00:52:20.649Z,86.10
2022-11-25T00:54:50.553Z,88.40
2022-11-25T00:57:23.132Z,87.20
2022-11-25T00:59:51.919Z,83.50
2022-11-25T01:02:20.641Z,79.20
2022-11-25T01:04:49.698Z,87.30
2022-11-25T01:07:18.651Z,79.40
2022-11-25T01:09:49.398Z,79.60
2022-11-25T01:12:17.920Z,88.00
2022-11-25T01:14:46.553Z,80.20
2022-11-25T01:17:15.104Z,83.10
2022-11-25T01:19:43.690Z,77.00
2022-11-25T01:22:12.355Z,75.70
2022-11-25T01:24:40.891Z,83.80
2022-11-25T01:27:09.441Z,80.90
2022-11-25T01:29:38.032Z,87.40
2022-11-25T01:32:06.632Z,80.70
2022-11-25T01:34:35.808Z,82.00
2022-11-25T01:37:04.683Z,78.90
2022-11-25T01:39:33.552Z,76.70
2022-11-25T01:42:02.442Z,72.70
2022-11-25T01:44:33.229Z,68.20
2022-11-25T01:47:14.771Z,74.10
2022-11-25T01:49:54.114Z,68.00
2022-11-25T01:52:32.015Z,69.20
2022-11-25T01:55:13.151Z,67.30
2022-11-25T01:57:57.760Z,67.30
2022-11-25T02:00:26.302Z,63.60
2022-11-25T02:02:57.656Z,67.40
2022-11-25T02:05:39.373Z,71.80
2022-11-25T02:08:08.535Z,66.50
2022-11-25T02:10:37.478Z,63.20
2022-11-25T02:13:06.105Z,66.50
2022-11-25T02:15:35.433Z,69.70
2022-11-25T02:18:04.915Z,72.20
2022-11-25T02:20:33.693Z,68.70
2022-11-25T02:23:43.286Z,71.40
2022-11-25T02:26:12.000Z,69.50
2022-11-25T02:28:40.685Z,69.10
2022-11-25T02:31:09.381Z,59.50
2022-11-25T02:33:38.108Z,67.60
2022-11-25T02:36:14.397Z,57.70
2022-11-25T02:38:49.451Z,58.80
2022-11-25T02:41:18.922Z,53.50
2022-11-25T02:43:47.523Z,56.00
2022-11-25T02:46:22.493Z,57.30
2022-11-25T02:51:41.684Z,54.00
2022-11-25T02:54:12.415Z,55.40
2022-11-25T02:56:40.997Z,55.10
2022-11-25T02:59:10.618Z,56.90
2022-11-25T03:01:40.049Z,56.50
2022-11-25T03:04:08.682Z,56.60
2022-11-25T03:06:37.362Z,62.30
2022-11-25T03:09:05.957Z,60.40
2022-11-25T03:11:52.979Z,61.80
2022-11-25T03:14:21.526Z,57.10
2022-11-25T03:16:50.381Z,54.40
2022-11-25T03:19:19.026Z,53.70
2022-11-25T03:21:48.001Z,60.60
2022-11-25T03:24:16.594Z,52.20
2022-11-25T03:26:45.129Z,54.90
2022-11-25T03:29:13.738Z,51.70
2022-11-25T03:31:42.504Z,47.30
2022-11-25T03:34:11.179Z,50.40
2022-11-25T03:36:39.752Z,59.30
2022-11-25T03:39:08.430Z,54.10
2022-11-25T03:41:36.961Z,55.30
2022-11-25T03:44:05.698Z,55.00
2022-11-25T03:46:34.318Z,48.80
2022-11-25T03:49:03.578Z,53.40
2022-11-25T03:51:32.153Z,52.30
2022-11-25T03:54:00.714Z,53.40
2022-11-25T03:56:29.333Z,56.70
2022-11-25T03:58:57.910Z,54.70
2022-11-25T04:01:26.542Z,58.80
2022-11-25T04:03:55.191Z,50.70
2022-11-25T04:06:24.115Z,51.80
2022-11-25T04:08:52.811Z,54.90
2022-11-25T04:11:21.545Z,58.70
2022-11-25T04:13:50.079Z,59.00
2022-11-25T04:16:27.778Z,60.80
2022-11-25T04:18:56.335Z,58.90
2022-11-25T04:21:24.892Z,53.70
2022-11-25T04:23:53.416Z,53.50
2022-11-25T04:26:22.287Z,55.00
2022-11-25T04:28:52.983Z,60.00
2022-11-25T04:31:21.745Z,55.70
2022-11-25T04:33:52.703Z,62.80
2022-11-25T04:36:21.589Z,60.00
2022-11-25T04:38:50.274Z,57.30
2022-11-25T04:41:18.811Z,55.10
2022-11-25T04:43:47.348Z,54.80
2022-11-25T04:47:32.256Z,58.90
2022-11-25T04:50:00.879Z,52.60
2022-11-25T04:52:29.352Z,60.10
2022-11-25T04:54:57.907Z,55.40
2022-11-25T04:57:26.448Z,53.70
2022-11-25T04:59:54.999Z,58.80
2022-11-25T05:02:27.437Z,57.90
2022-11-25T05:04:57.895Z,59.60
2022-11-25T05:07:28.929Z,55.30
2022-11-25T05:09:57.770Z,60.40
2022-11-25T05:12:29.612Z,58.60
2022-11-25T05:14:58.453Z,54.80
2022-11-25T05:17:30.621Z,59.20
2022-11-25T05:19:59.245Z,59.90
2022-11-25T05:22:33.159Z,58.70
2022-11-25T05:25:02.107Z,61.20
2022-11-25T05:27:30.647Z,64.20
2022-11-25T05:29:59.262Z,63.20
2022-11-25T05:32:27.805Z,61.60
2022-11-25T05:34:56.320Z,60.40
2022-11-25T05:37:24.917Z,56.10
2022-11-25T05:39:53.445Z,67.20
2022-11-25T05:42:21.979Z,65.30
2022-11-25T05:44:50.586Z,61.00
2022-11-25T05:47:19.072Z,61.90
2022-11-25T05:49:47.804Z,57.80
2022-11-25T05:52:18.004Z,61.70
2022-11-25T05:54:46.561Z,69.10
2022-11-25T05:57:15.085Z,58.20
2022-11-25T05:59:43.746Z,63.90
2022-11-25T06:02:12.341Z,60.50
2022-11-25T06:04:40.941Z,61.00
2022-11-25T06:07:09.523Z,60.10
2022-11-25T06:09:38.334Z,57.50
2022-11-25T06:12:07.278Z,61.10
2022-11-25T06:14:36.269Z,64.20
2022-11-25T06:17:05.627Z,61.60
2022-11-25T06:19:34.337Z,60.50
2022-11-25T06:22:02.845Z,67.20
2022-11-25T06:24:31.450Z,64.60
2022-11-25T06:27:01.096Z,61.40
2022-11-25T06:29:29.763Z,60.40
2022-11-25T06:31:58.594Z,59.50
2022-11-25T06:34:27.267Z,67.20
2022-11-25T06:36:56.286Z,61.60
2022-11-25T06:39:25.584Z,60.80
2022-11-25T06:41:54.112Z,67.40
2022-11-25T06:44:22.704Z,69.00
2022-11-25T06:46:51.358Z,61.80
2022-11-25T06:49:19.982Z,61.70
2022-11-25T06:51:50.425Z,58.80
2022-11-25T06:54:18.962Z,64.20
2022-11-25T06:56:53.868Z,62.80
2022-11-25T06:59:22.558Z,60.30
2022-11-25T07:01:51.242Z,67.80
2022-11-25T07:04:19.857Z,63.00
2022-11-25T07:06:49.972Z,66.90
2022-11-25T07:09:19.712Z,63.00
2022-11-25T07:11:49.471Z,61.10
2022-11-25T07:14:18.146Z,62.10
2022-11-25T07:16:46.961Z,63.20
2022-11-25T07:19:18.177Z,64.90
2022-11-25T07:21:47.054Z,69.30
2022-11-25T07:24:18.413Z,64.10
2022-11-25T07:26:47.065Z,60.60
2022-11-25T07:29:51.595Z,59.60
2022-11-25T07:32:10.274Z,64.90
2022-11-25T07:34:39.512Z,61.10
2022-11-25T07:37:08.287Z,68.20
2022-11-25T07:39:37.256Z,68.30
2022-11-25T07:42:05.946Z,73.10
2022-11-25T07:44:34.625Z,73.20
2022-11-25T07:47:03.145Z,74.40
2022-11-25T07:49:31.884Z,67.00
2022-11-25T07:52:02.385Z,68.20
2022-11-25T07:54:31.428Z,69.40
2022-11-25T07:57:00.013Z,63.60
2022-11-25T07:59:28.630Z,61.30
2022-11-25T08:01:57.182Z,60.80
2022-11-25T08:04:25.912Z,63.40
2022-11-25T08:06:55.192Z,54.60
2022-11-25T08:09:24.285Z,59.00
2022-11-25T08:11:53.951Z,59.40
2022-11-25T08:14:22.500Z,59.50
2022-11-25T08:16:51.167Z,59.10
2022-11-25T08:19:19.813Z,51.90
2022-11-25T08:21:48.414Z,50.10
2022-11-25T08:24:20.832Z,47.40
2022-11-25T08:26:49.696Z,49.40
2022-11-25T08:29:19.567Z,48.70
2022-11-25T08:31:48.557Z,52.50
2022-11-25T08:34:23.011Z,53.40
2022-11-25T08:36:52.622Z,52.90
2022-11-25T08:39:51.084Z,56.60
2022-11-25T08:42:11.005Z,51.90
2022-11-25T08:44:39.758Z,48.20
2022-11-25T08:47:10.031Z,47.20
2022-11-25T08:49:41.705Z,45.90
2022-11-25T08:52:11.175Z,46.00
2022-11-25T08:54:39.741Z,51.10
2022-11-25T08:57:08.481Z,49.80
2022-11-25T08:59:37.716Z,44.40
2022-11-25T09:02:08.763Z,51.50
2022-11-25T09:04:39.512Z,45.70
2022-11-25T09:07:08.265Z,41.10
2022-11-25T09:09:37.145Z,44.60
2022-11-25T09:12:06.066Z,42.00
2022-11-25T09:14:34.694Z,44.30
2022-11-25T09:17:07.888Z,37.20
2022-11-25T09:19:36.790Z,38.90
2022-11-25T09:22:05.767Z,39.70
2022-11-25T09:24:35.854Z,45.40
2022-11-25T09:27:04.459Z,36.50
2022-11-25T09:29:33.239Z,36.60
2022-11-25T09:32:02.104Z,35.00
2022-11-25T09:34:30.787Z,40.10
2022-11-25T09:36:59.374Z,34.20
2022-11-25T09:39:29.992Z,39.60
2022-11-25T09:42:57.112Z,37.80
2022-11-25T09:46:39.434Z,43.10
2022-11-25T09:49:22.955Z,35.20
2022-11-25T09:52:14.045Z,41.80
2022-11-25T10:00:14.194Z,33.30
2022-11-25T10:03:30.015Z,27.70
2022-11-25T10:06:04.706Z,28.90
2022-11-25T10:08:43.689Z,32.00
2022-11-25T10:11:55.045Z,28.50
2022-11-25T10:14:47.498Z,25.60
2022-11-25T10:17:33.960Z,28.40
2022-11-25T10:20:13.354Z,31.00
2022-11-25T10:22:45.753Z,31.10
2022-11-25T10:25:31.782Z,28.40
2022-11-25T10:28:18.686Z,28.40
2022-11-25T10:31:06.465Z,29.40
2022-11-25T10:33:46.423Z,28.40
2022-11-25T10:36:21.916Z,29.80
2022-11-25T10:39:15.376Z,30.30
2022-11-25T10:41:57.705Z,30.40
2022-11-25T10:44:36.438Z,30.50
2022-11-25T10:47:26.787Z,29.70
2022-11-25T10:50:25.655Z,32.70
2022-11-25T10:53:13.344Z,23.70
2022-11-25T10:56:05.252Z,22.50
2022-11-25T10:58:37.412Z,24.60
2022-11-25T11:01:22.706Z,26.90
2022-11-25T11:04:15.327Z,23.10
2022-11-25T11:06:51.480Z,25.30
2022-11-25T11:09:43.275Z,25.30
2022-11-25T11:12:26.971Z,24.40
2022-11-25T11:15:30.239Z,30.30
2022-11-25T11:18:21.499Z,24.80
2022-11-25T11:20:56.131Z,30.60
2022-11-25T11:23:25.738Z,25.10
2022-11-25T11:26:04.799Z,20.20
2022-11-25T11:28:38.994Z,24.60
2022-11-25T11:31:26.917Z,21.90
2022-11-25T11:34:40.913Z,25.70
2022-11-25T11:37:36.165Z,19.40
2022-11-25T11:40:24.283Z,22.80
2022-11-25T11:43:34.038Z,24.10
2022-11-25T11:46:31.113Z,20.70
2022-11-25T11:49:05.632Z,20.80
2022-11-25T11:51:45.652Z,25.00
2022-11-25T11:54:22.732Z,19.10
2022-11-25T11:57:02.325Z,23.90
2022-11-25T11:59:52.834Z,22.20
2022-11-25T12:02:48.788Z,22.80
2022-11-25T12:05:23.271Z,22.60
2022-11-25T12:11:05.996Z,22.70
2022-11-25T12:14:07.359Z,19.40
2022-11-25T12:16:58.027Z,19.40
2022-11-25T12:20:07.637Z,19.20
2022-11-25T12:22:47.406Z,20.70
2022-11-25T12:25:28.653Z,17.90
2022-11-25T12:28:18.627Z,18.10
2022-11-25T12:31:15.813Z,19.80
2022-11-25T12:34:01.663Z,17.30
2022-11-25T12:36:41.466Z,12.70
2022-11-25T12:39:39.804Z,12.20
2022-11-25T12:42:23.200Z,15.60
2022-11-25T12:45:05.384Z,17.90
2022-11-25T12:47:34.067Z,14.30
2022-11-25T12:50:03.354Z,18.30
2022-11-25T12:53:16.381Z,21.40
2022-11-25T12:55:44.923Z,20.20
2022-11-25T12:58:58.877Z,16.40
2022-11-25T13:02:06.364Z,18.00
2022-11-25T13:05:00.460Z,18.30
2022-11-25T13:08:11.357Z,21.50
2022-11-25T13:11:15.887Z,18.70
2022-11-25T13:14:33.384Z,18.20
2022-11-25T13:17:03.027Z,17.20
2022-11-25T13:19:38.054Z,15.90
2022-11-25T13:22:23.769Z,14.50
2022-11-25T13:27:52.993Z,16.50
2022-11-25T13:30:33.573Z,14.00
2022-11-25T13:33:14.055Z,14.30
2022-11-25T13:35:53.187Z,11.30
2022-11-25T13:38:30.945Z,14.20
2022-11-25T13:41:21.255Z,10.50
2022-11-25T13:44:32.434Z,16.00
2022-11-25T13:47:39.630Z,11.50
2022-11-25T13:50:21.851Z,13.80
2022-11-25T13:53:03.923Z,11.20
2022-11-25T13:55:34.328Z,15.20
2022-11-25T13:58:31.740Z,13.50
2022-11-25T14:01:29.599Z,16.80
2022-11-25T14:04:01.160Z,14.10
2022-11-25T14:07:03.759Z,16.40
2022-11-25T14:10:10.975Z,18.10
2022-11-25T14:13:11.741Z,12.20
2022-11-25T14:16:07.550Z,15.30
2022-11-25T14:19:51.575Z,14.30
2022-11-25T14:23:18.197Z,14.50
2022-11-25T14:26:02.758Z,14.50
2022-11-25T14:29:00.131Z,14.70
2022-11-25T14:34:45.405Z,17.40
2022-11-25T14:37:35.081Z,14.10
2022-11-25T14:40:17.989Z,14.30
2022-11-25T14:42:52.562Z,18.50
2022-11-25T14:45:30.033Z,15.20
2022-11-25T14:47:58.702Z,17.20
2022-11-25T14:50:34.575Z,17.00
2022-11-25T14:53:09.958Z,15.50
2022-11-25T14:55:38.619Z,23.00
2022-11-25T14:58:07.177Z,26.50
2022-11-25T15:00:50.990Z,26.00
2022-11-25T15:03:20.467Z,42.00
2022-11-25T15:06:01.491Z,32.80
2022-11-25T15:08:41.566Z,38.50
2022-11-25T15:11:22.907Z,41.40
2022-11-25T15:14:03.866Z,40.50
2022-11-25T15:16:40.593Z,37.10
2022-11-25T15:19:20.138Z,34.10
2022-11-25T15:24:55.843Z,33.10
2022-11-25T15:27:28.194Z,38.10
2022-11-25T15:29:57.766Z,32.40
2022-11-25T15:32:30.193Z,32.80
2022-11-25T15:35:01.891Z,32.40
2022-11-25T15:37:30.568Z,37.40
2022-11-25T15:40:32.047Z,34.70
2022-11-25T15:43:05.820Z,39.90
2022-11-25T15:45:46.601Z,36.50
2022-11-25T15:48:31.589Z,50.30
2022-11-25T15:51:06.264Z,50.70
2022-11-25T15:53:37.927Z,45.10
2022-11-25T15:56:07.613Z,51.10
2022-11-25T15:58:36.448Z,40.50
2022-11-25T16:01:23.108Z,49.70
2022-11-25T16:03:52.118Z,54.70
2022-11-25T16:06:28.960Z,57.60
2022-11-25T16:09:00.711Z,53.30
2022-11-25T16:11:33.657Z,40.70
2022-11-25T16:14:26.014Z,36.40
2022-11-25T16:17:12.765Z,35.00
2022-11-25T16:19:45.760Z,31.20
2022-11-25T16:22:19.138Z,26.70
2022-11-25T16:26:26.763Z,29.50
2022-11-25T16:27:44.668Z,29.20
2022-11-25T16:30:20.911Z,31.70
2022-11-25T16:32:49.466Z,31.60
2022-11-25T16:35:23.838Z,29.10
2022-11-25T16:37:58.284Z,24.50
2022-11-25T16:40:28.419Z,27.30
2022-11-25T16:42:57.068Z,23.80
2022-11-25T16:45:28.356Z,54.40
2022-11-25T16:47:57.188Z,41.10
2022-11-25T16:50:25.804Z,38.00
2022-11-25T16:52:54.563Z,32.50
2022-11-25T16:55:23.979Z,29.90
2022-11-25T16:57:54.542Z,23.10
2022-11-25T17:00:23.264Z,34.30
2022-11-25T17:02:52.005Z,34.20
2022-11-25T17:05:24.863Z,35.10
2022-11-25T17:07:53.636Z,29.50
2022-11-25T17:10:22.375Z,28.00
2022-11-25T17:12:51.849Z,35.10
2022-11-25T17:15:29.397Z,28.60
2022-11-25T17:18:00.101Z,28.40
2022-11-25T17:20:28.835Z,33.20
2022-11-25T17:22:58.276Z,54.50
2022-11-25T17:25:32.384Z,32.20
2022-11-25T17:28:05.954Z,40.80
2022-11-25T17:30:40.550Z,30.80
2022-11-25T17:33:19.590Z,35.20
2022-11-25T17:35:48.185Z,39.30
2022-11-25T17:38:20.554Z,36.50
2022-11-25T17:40:50.657Z,42.20
2022-11-25T17:43:21.148Z,35.50
2022-11-25T17:45:49.840Z,33.60
2022-11-25T17:48:18.629Z,30.20
2022-11-25T17:50:47.555Z,34.00
2022-11-25T17:53:16.172Z,26.10
2022-11-25T17:55:44.764Z,32.20
2022-11-25T17:58:19.356Z,29.00
2022-11-25T18:00:49.040Z,33.40
2022-11-25T18:03:17.700Z,30.30
2022-11-25T18:05:46.307Z,34.40
2022-11-25T18:08:15.167Z,29.50
2022-11-25T18:10:46.279Z,29.30
2022-11-25T18:13:16.743Z,38.60
2022-11-25T18:15:45.473Z,34.50
2022-11-25T18:18:25.645Z,42.70
2022-11-25T18:20:54.344Z,47.10
2022-11-25T18:23:23.063Z,60.70
2022-11-25T18:25:52.966Z,48.60
2022-11-25T18:28:25.996Z,47.80
2022-11-25T18:31:00.073Z,46.20
2022-11-25T18:33:29.455Z,45.10
2022-11-25T18:35:58.543Z,36.00
2022-11-25T18:38:27.197Z,39.30
2022-11-25T18:40:56.502Z,41.40
2022-11-25T18:51:54.229Z,34.90
2022-11-25T18:54:22.789Z,29.20
2022-11-25T18:56:52.472Z,30.60
2022-11-25T18:59:36.539Z,26.30
2022-11-25T19:02:16.389Z,31.50
2022-11-25T19:04:45.901Z,33.40
2022-11-25T19:07:14.841Z,30.10
2022-11-25T19:09:43.526Z,31.70
2022-11-25T19:12:18.252Z,35.10
2022-11-25T19:14:47.826Z,38.30
2022-11-25T19:17:22.094Z,32.20
2022-11-25T19:19:50.802Z,39.00
2022-11-25T19:22:22.123Z,40.90
2022-11-25T19:24:51.409Z,39.10
2022-11-25T19:27:24.087Z,33.40
2022-11-25T19:29:53.269Z,35.30
2022-11-25T19:32:29.752Z,38.20
2022-11-25T19:35:05.812Z,34.10
2022-11-25T19:37:34.678Z,38.20
2022-11-25T19:40:14.847Z,43.60
2022-11-25T19:42:48.699Z,39.80
2022-11-25T19:45:20.666Z,42.50
2022-11-25T19:47:52.392Z,38.80
2022-11-25T19:50:28.009Z,42.40
2022-11-25T19:52:56.640Z,42.20
2022-11-25T19:55:30.067Z,42.50
2022-11-25T19:57:59.687Z,41.70
2022-11-25T20:00:28.317Z,41.70
2022-11-25T20:02:57.040Z,45.60
2022-11-25T20:05:38.505Z,51.50
2022-11-25T20:08:18.815Z,44.70
2022-11-25T20:10:47.909Z,52.70
2022-11-25T20:13:16.613Z,48.50
2022-11-25T20:15:46.154Z,49.30
2022-11-25T20:18:20.157Z,44.60
2022-11-25T20:21:02.370Z,44.30
2022-11-25T20:23:43.579Z,44.80
2022-11-25T20:26:27.012Z,39.90
2022-11-25T20:28:55.582Z,45.20
2022-11-25T20:31:30.532Z,46.10
2022-11-25T20:36:33.347Z,40.60
2022-11-25T20:39:03.921Z,43.70
2022-11-25T20:41:33.527Z,36.70
2022-11-25T20:44:02.515Z,40.90
2022-11-25T20:46:31.152Z,33.10
2022-11-25T20:49:03.436Z,39.50
2022-11-25T20:51:32.067Z,42.40
2022-11-25T20:54:01.452Z,30.10
2022-11-25T20:56:30.427Z,37.10
2022-11-25T20:58:59.004Z,33.70
2022-11-25T21:01:27.779Z,37.10
2022-11-25T21:03:56.498Z,47.70
2022-11-25T21:06:37.847Z,38.70
2022-11-25T21:09:19.302Z,47.20
2022-11-25T21:11:49.085Z,53.20
2022-11-25T21:14:20.108Z,53.20
2022-11-25T21:16:48.891Z,45.80
2022-11-25T21:19:17.585Z,51.10
2022-11-25T21:21:49.736Z,56.00
2022-11-25T21:24:32.985Z,42.20
2022-11-25T21:27:11.278Z,37.70
2022-11-25T21:29:45.093Z,47.40
2022-11-25T21:32:27.451Z,42.10
2022-11-25T21:34:57.032Z,42.10
2022-11-25T21:37:38.074Z,51.20
2022-11-25T21:40:16.610Z,45.00
2022-11-25T21:42:45.172Z,47.90
2022-11-25T21:45:18.448Z,40.90
2022-11-25T21:47:47.018Z,48.70
2022-11-25T21:50:18.981Z,44.80
2022-11-25T21:52:47.666Z,43.40
2022-11-25T21:55:17.804Z,52.10
2022-11-25T21:57:46.553Z,44.80
2022-11-25T22:00:25.505Z,43.80
2022-11-25T22:02:54.214Z,43.20
2022-11-25T22:05:26.985Z,44.10
2022-11-25T22:07:55.644Z,42.40
2022-11-25T22:10:24.380Z,51.20
2022-11-25T22:12:52.947Z,45.40
2022-11-25T22:15:23.179Z,42.30
2022-11-25T22:17:56.054Z,40.70
2022-11-25T22:20:34.011Z,47.80
2022-11-25T22:23:02.926Z,37.50
2022-11-25T22:25:32.880Z,41.00
2022-11-25T22:28:01.442Z,49.20
2022-11-25T22:30:30.071Z,46.20
2022-11-25T22:33:02.769Z,46.20
2022-11-25T22:35:31.448Z,32.60
2022-11-25T22:38:00.535Z,29.50
2022-11-25T22:40:29.228Z,31.40
2022-11-25T22:42:57.891Z,31.10
2022-11-25T22:45:32.405Z,35.50
2022-11-25T22:48:05.436Z,38.60
2022-11-25T22:50:34.969Z,44.80
2022-11-25T22:53:13.066Z,42.20
2022-11-25T22:55:42.450Z,39.10
2022-11-25T22:58:13.982Z,39.00
2022-11-25T23:00:46.800Z,43.20
2022-11-25T23:03:35.709Z,41.30
2022-11-25T23:06:05.592Z,41.50
2022-11-25T23:08:34.545Z,47.60
2022-11-25T23:11:03.383Z,36.20
2022-11-25T23:13:32.015Z,40.50
2022-11-25T23:16:04.088Z,45.80
2022-11-25T23:18:42.928Z,48.80
2022-11-25T23:21:22.978Z,43.50
2022-11-25T23:23:52.610Z,43.50
2022-11-25T23:29:07.981Z,43.30
2022-11-25T23:31:39.090Z,48.10
2022-11-25T23:34:31.028Z,45.00
2022-11-25T23:37:00.449Z,45.10
2022-11-25T23:39:29.096Z,40.80
2022-11-25T23:41:57.877Z,51.90
2022-11-25T23:44:31.637Z,48.90
2022-11-25T23:47:07.919Z,48.70
2022-11-25T23:49:41.469Z,48.00
2022-11-25T23:52:18.675Z,39.10
2022-11-25T23:54:49.660Z,43.60
2022-11-25T23:57:22.735Z,47.80
2022-11-25T23:59:52.662Z,44.30
